If you wish to contribute or participate in the discussions about articles you are invited to join SKYbrary as a registered user

 Actions

Annaba/Rabah Bitat

From SKYbrary Wiki

DABB /
Revision as of 19:22, 28 October 2011 by Timo.Kouwenhoven (talk | contribs) (Created page with "{{Airport |Airport_Name=Annaba/Rabah Bitat |ICAO_Region=AFI |ICAO_Territory=DA |Location=Annaba |Coordinates=36.822222, 7.809443999999985 }} {{APT Show Hazards |Switch=Off }} Rab...")
(diff) ← Older revision | Latest revision (diff) | Newer revision → (diff)
Airport
ICAO: DABB
Summary
Name Annaba/Rabah Bitat
Region Africa
Territory Algeria DZ.gif
Location Annaba
Serving
Coordinates 36° 49' 20.00" N, 7° 48' 34.00" E
Runways
Designator Length Width Surface ROPS
1/19 3000 m9,842.52 ft
45 m147.638 ft
ASP yes/yes
5/23 2290 m7,513.123 ft
45 m147.638 ft
ASP yes/yes


METAR
Observation DABB 151130Z 02008KT 9999 FEW023 SCT200 27/18 Q1016
Station Annaba
Date/Time 15 October 2019 11:30:00
Wind direction 20°
Wind speed 08 kts
Lowest cloud amount few clouds
Temperature 27°C
Dew point 18°C
Humidity 57%
QNH 1016 hPa
Weather condition n/a

Rabah Bitat Airport (IATA: AAE), formerly known as Les Salines Airport, and popularly as El Mellah Airport is an international airport located 9 km south of Annaba, a city in Algeria.